x

Isle Of Shoals, Nh (iosn3) Weather Station

1:00am - Fri 23rd Jun 2017 All times are EDT. -4 hours from GMT.

  • Wind
    14mph, 14mph gusts
  • Air Temp 73°f
  • Sea Pressure 1011mb
  • Isle Of Shoals, Nh
  • Isle Of Shoals, Nh

More Historic Weather Station data

Upgrade to MSW Pro to gain access to the past 30 days of data for over 8000 Wavebouys and Weather Stations around the globe.

Join Pro

Comparision Forecast

View Surf forecast
   
Fri 06/23 1:00am 14 14 mph 1011mb 73f
12:00am 17 18 mph 1011.7mb 70f
Thu 06/22 11:00pm 14 14 mph 1011.7mb 72f
10:00pm 11 11 mph 1011.9mb 73f
9:00pm 13 13 mph 1011.8mb 68f
8:00pm 14 14 mph 1011.6mb 69f
7:00pm 18 20 mph 1011.2mb 65f
6:00pm 23 23 mph 1010.9mb 67f
5:00pm 22 23 mph 1011.6mb 66f
4:00pm 23 25 mph 1011.4mb 66f
3:00pm 22 24 mph 1011.8mb 68f
2:00pm 20 20 mph 1012.5mb 68f
1:00pm 14 14 mph 1013mb 69f
12:00pm 13 13 mph 1013.5mb 69f
11:00am 9 9 mph 1013.5mb 68f
10:00am 8 8 mph 1014.4mb 68f
9:00am 11 11 mph 1014.5mb 66f
8:00am 10 11 mph 1014.3mb 62f
7:00am 11 11 mph 1014mb 61f
6:00am 8 8 mph 1013.5mb 61f
5:00am 13 14 mph 1012.8mb 62f
4:00am 10 10 mph 1012.5mb 60f
3:00am 9 10 mph 1012.3mb 64f
2:00am 9 9 mph 1012.2mb 65f
1:00am 13 14 mph 1011.9mb 66f
12:00am 14 14 mph 1011.7mb 68f
Wed 06/21 11:00pm 14 14 mph 1011.3mb 70f
10:00pm 14 14 mph 1011.1mb 71f
9:00pm 11 11 mph 1010.5mb 73f
8:00pm 16 17 mph 1009.6mb 75f
7:00pm 22 23 mph 1009.2mb 75f
6:00pm 23 25 mph 1008.6mb 75f
5:00pm 20 22 mph 1008.3mb 74f
4:00pm 16 18 mph 1008.2mb 73f
3:00pm 18 20 mph 1008.3mb 74f
2:00pm 21 22 mph 1008.3mb 75f
1:00pm 21 22 mph 1008.7mb 73f
12:00pm 21 23 mph 1009.2mb 73f
11:00am 15 15 mph 1009.8mb 69f
10:00am 15 16 mph 1010.2mb 65f
9:00am 10 10 mph 1010.8mb 65f
8:00am 10 11 mph 1011.2mb 66f
7:00am 16 16 mph 1011.3mb 65f
6:00am 15 15 mph 1011.6mb 65f
5:00am 16 17 mph 1011.2mb 65f
4:00am 13 13 mph 1011.2mb 64f
3:00am 17 17 mph 1011.2mb 69f
2:00am 14 15 mph 1011.5mb 67f
1:00am 10 13 mph 1011.8mb 64f
12:00am 20 20 mph 1011.8mb 73f
Tue 06/20 11:00pm 17 17 mph 1011.8mb 70f
10:00pm 14 14 mph 1011.5mb 75f
9:00pm 15 15 mph 1010.8mb 74f
8:00pm 22 23 mph 1009.9mb 78f
7:00pm 18 20 mph 1009.1mb 79f
6:00pm 28 30 mph 1008.1mb 80f
5:00pm 24 25 mph 1008.1mb 76f
4:00pm 26 28 mph 1007.8mb 79f
3:00pm 6 7 mph 1008.2mb 72f
2:00pm 23 25 mph 1008.1mb 65f
1:00pm 24 28 mph 1008.2mb 68f
12:00pm 21 22 mph 1008.8mb 74f
11:00am 21 21 mph 1008.9mb 69f
10:00am 22 23 mph 1009mb 64f
9:00am 23 23 mph 1009.2mb 64f
8:00am 24 25 mph 1009.2mb 63f
7:00am 23 25 mph 1009mb 64f
6:00am 23 24 mph 1009.2mb 65f
5:00am 23 24 mph 1009mb 65f
4:00am 28 28 mph 1009.1mb 69f
3:00am 29 29 mph 1009.1mb 65f
2:00am 23 23 mph 1008.9mb 68f
1:00am 25 25 mph 1009.2mb 65f
12:00am 28 29 mph 1009.2mb 66f
Mon 06/19 11:00pm 21 22 mph 1009.1mb 65f
10:00pm 28 29 mph 1009.9mb 69f
9:00pm 29 31 mph 1009.4mb 67f
8:00pm 30 31 mph 1008.7mb 67f
7:00pm 26 29 mph 1008mb 67f
6:00pm 28 29 mph 1008.1mb 69f
5:00pm 29 31 mph 1007.6mb 69f
4:00pm 24 28 mph 1008.2mb 66f
3:00pm 28 29 mph 1008.3mb 65f
2:00pm 29 30 mph 1008.5mb 67f
1:00pm 25 26 mph 1009.3mb 66f
12:00pm 23 24 mph 1009.7mb 69f
11:00am 28 29 mph 1009.8mb 69f
10:00am 26 26 mph 1009.9mb 67f
9:00am 31 32 mph 1009.8mb 69f
8:00am 32 33 mph 1009.6mb 66f
7:00am 29 30 mph 1009.2mb 66f